sensor_id;sensor_type;location;lat;lon;timestamp;P1;durP1;ratioP1;P2;durP2;ratioP2
57023;SDS011;42916;54.346;18.562;2022-08-14T00:01:06;6.60;;;3.00;;
57023;SDS011;42916;54.346;18.562;2022-08-14T00:03:32;5.30;;;3.30;;
57023;SDS011;42916;54.346;18.562;2022-08-14T00:06:00;8.50;;;2.90;;
57023;SDS011;42916;54.346;18.562;2022-08-14T00:08:28;3.80;;;2.90;;
57023;SDS011;42916;54.346;18.562;2022-08-14T00:10:56;7.00;;;2.90;;
57023;SDS011;42916;54.346;18.562;2022-08-14T00:13:23;6.60;;;2.50;;
57023;SDS011;42916;54.346;18.562;2022-08-14T00:15:56;8.20;;;2.70;;
57023;SDS011;42916;54.346;18.562;2022-08-14T00:18:25;6.20;;;2.90;;
57023;SDS011;42916;54.346;18.562;2022-08-14T00:20:54;8.40;;;3.10;;
57023;SDS011;42916;54.346;18.562;2022-08-14T00:23:21;9.10;;;3.10;;
57023;SDS011;42916;54.346;18.562;2022-08-14T00:25:49;5.30;;;3.00;;
57023;SDS011;42916;54.346;18.562;2022-08-14T00:28:18;7.90;;;2.80;;
57023;SDS011;42916;54.346;18.562;2022-08-14T00:30:54;8.50;;;3.20;;
57023;SDS011;42916;54.346;18.562;2022-08-14T00:33:23;7.00;;;3.20;;
57023;SDS011;42916;54.346;18.562;2022-08-14T00:35:51;6.90;;;3.50;;
57023;SDS011;42916;54.346;18.562;2022-08-14T00:38:18;5.40;;;3.40;;
57023;SDS011;42916;54.346;18.562;2022-08-14T00:40:46;8.10;;;3.60;;
57023;SDS011;42916;54.346;18.562;2022-08-14T00:43:13;5.80;;;3.40;;
57023;SDS011;42916;54.346;18.562;2022-08-14T00:45:41;8.60;;;3.10;;
57023;SDS011;42916;54.346;18.562;2022-08-14T00:48:08;6.60;;;3.50;;
57023;SDS011;42916;54.346;18.562;2022-08-14T00:50:35;7.70;;;2.90;;
57023;SDS011;42916;54.346;18.562;2022-08-14T00:53:02;5.20;;;2.90;;
57023;SDS011;42916;54.346;18.562;2022-08-14T00:55:30;7.50;;;3.00;;
57023;SDS011;42916;54.346;18.562;2022-08-14T00:57:58;4.90;;;3.10;;
57023;SDS011;42916;54.346;18.562;2022-08-14T01:00:44;6.50;;;3.40;;
57023;SDS011;42916;54.346;18.562;2022-08-14T01:03:14;7.30;;;3.20;;
57023;SDS011;42916;54.346;18.562;2022-08-14T01:05:44;7.00;;;3.20;;
57023;SDS011;42916;54.346;18.562;2022-08-14T01:08:17;4.90;;;3.20;;
57023;SDS011;42916;54.346;18.562;2022-08-14T01:10:46;9.80;;;3.50;;
57023;SDS011;42916;54.346;18.562;2022-08-14T01:13:18;6.60;;;3.00;;
57023;SDS011;42916;54.346;18.562;2022-08-14T01:15:49;6.40;;;3.20;;
57023;SDS011;42916;54.346;18.562;2022-08-14T01:18:19;5.70;;;3.00;;
57023;SDS011;42916;54.346;18.562;2022-08-14T01:21:06;7.70;;;3.50;;
57023;SDS011;42916;54.346;18.562;2022-08-14T01:23:55;7.60;;;3.50;;
57023;SDS011;42916;54.346;18.562;2022-08-14T01:26:23;7.60;;;3.50;;
57023;SDS011;42916;54.346;18.562;2022-08-14T01:28:52;5.80;;;3.40;;
57023;SDS011;42916;54.346;18.562;2022-08-14T01:31:22;6.80;;;3.20;;
57023;SDS011;42916;54.346;18.562;2022-08-14T01:33:51;6.80;;;2.90;;
57023;SDS011;42916;54.346;18.562;2022-08-14T01:36:22;3.80;;;3.30;;
57023;SDS011;42916;54.346;18.562;2022-08-14T01:38:52;6.80;;;3.10;;
57023;SDS011;42916;54.346;18.562;2022-08-14T01:41:25;4.20;;;2.90;;
57023;SDS011;42916;54.346;18.562;2022-08-14T01:43:57;5.50;;;3.30;;
57023;SDS011;42916;54.346;18.562;2022-08-14T01:46:27;9.00;;;3.50;;
57023;SDS011;42916;54.346;18.562;2022-08-14T01:48:57;7.80;;;3.20;;
57023;SDS011;42916;54.346;18.562;2022-08-14T01:51:25;5.60;;;3.60;;
57023;SDS011;42916;54.346;18.562;2022-08-14T01:53:54;7.80;;;3.30;;
57023;SDS011;42916;54.346;18.562;2022-08-14T01:56:25;4.70;;;3.20;;
57023;SDS011;42916;54.346;18.562;2022-08-14T01:59:01;10.70;;;3.50;;
57023;SDS011;42916;54.346;18.562;2022-08-14T02:01:29;6.60;;;3.10;;
57023;SDS011;42916;54.346;18.562;2022-08-14T02:03:56;7.90;;;3.50;;
57023;SDS011;42916;54.346;18.562;2022-08-14T02:06:23;4.50;;;3.10;;
57023;SDS011;42916;54.346;18.562;2022-08-14T02:11:19;7.80;;;3.40;;
57023;SDS011;42916;54.346;18.562;2022-08-14T02:13:59;9.00;;;3.10;;
57023;SDS011;42916;54.346;18.562;2022-08-14T02:16:31;4.80;;;2.80;;
57023;SDS011;42916;54.346;18.562;2022-08-14T02:19:02;6.80;;;3.20;;
57023;SDS011;42916;54.346;18.562;2022-08-14T02:21:34;4.60;;;3.00;;
57023;SDS011;42916;54.346;18.562;2022-08-14T02:24:03;8.50;;;3.40;;
57023;SDS011;42916;54.346;18.562;2022-08-14T02:26:32;5.80;;;3.80;;
57023;SDS011;42916;54.346;18.562;2022-08-14T02:29:02;9.50;;;3.50;;
57023;SDS011;42916;54.346;18.562;2022-08-14T02:31:32;6.80;;;3.10;;
57023;SDS011;42916;54.346;18.562;2022-08-14T02:34:22;5.30;;;3.10;;
57023;SDS011;42916;54.346;18.562;2022-08-14T02:36:50;7.00;;;3.40;;
57023;SDS011;42916;54.346;18.562;2022-08-14T02:39:19;6.80;;;3.20;;
57023;SDS011;42916;54.346;18.562;2022-08-14T02:41:46;8.30;;;3.00;;
57023;SDS011;42916;54.346;18.562;2022-08-14T02:44:16;6.00;;;3.00;;
57023;SDS011;42916;54.346;18.562;2022-08-14T02:46:46;4.90;;;2.90;;
57023;SDS011;42916;54.346;18.562;2022-08-14T02:49:13;6.30;;;3.20;;
57023;SDS011;42916;54.346;18.562;2022-08-14T02:51:39;4.80;;;3.20;;
57023;SDS011;42916;54.346;18.562;2022-08-14T02:54:07;5.70;;;2.90;;
57023;SDS011;42916;54.346;18.562;2022-08-14T02:56:35;6.20;;;2.70;;
57023;SDS011;42916;54.346;18.562;2022-08-14T02:59:04;7.30;;;2.90;;
57023;SDS011;42916;54.346;18.562;2022-08-14T03:01:34;7.10;;;3.20;;
57023;SDS011;42916;54.346;18.562;2022-08-14T03:04:03;7.00;;;3.30;;
57023;SDS011;42916;54.346;18.562;2022-08-14T03:06:31;5.30;;;3.30;;
57023;SDS011;42916;54.346;18.562;2022-08-14T03:08:57;6.30;;;3.10;;
57023;SDS011;42916;54.346;18.562;2022-08-14T03:11:25;6.20;;;3.10;;
57023;SDS011;42916;54.346;18.562;2022-08-14T03:13:51;5.00;;;3.20;;
57023;SDS011;42916;54.346;18.562;2022-08-14T03:16:19;4.90;;;3.20;;
57023;SDS011;42916;54.346;18.562;2022-08-14T03:18:49;5.60;;;3.30;;
57023;SDS011;42916;54.346;18.562;2022-08-14T03:21:20;4.80;;;2.90;;
57023;SDS011;42916;54.346;18.562;2022-08-14T03:23:49;3.50;;;3.20;;
57023;SDS011;42916;54.346;18.562;2022-08-14T03:26:23;7.20;;;3.10;;
57023;SDS011;42916;54.346;18.562;2022-08-14T03:28:54;10.60;;;3.30;;
57023;SDS011;42916;54.346;18.562;2022-08-14T03:31:21;6.10;;;3.70;;
57023;SDS011;42916;54.346;18.562;2022-08-14T03:33:49;6.00;;;3.20;;
57023;SDS011;42916;54.346;18.562;2022-08-14T03:36:18;6.60;;;4.00;;
57023;SDS011;42916;54.346;18.562;2022-08-14T03:38:47;7.20;;;3.40;;
57023;SDS011;42916;54.346;18.562;2022-08-14T03:41:18;6.40;;;3.30;;
57023;SDS011;42916;54.346;18.562;2022-08-14T03:43:46;4.80;;;3.80;;
57023;SDS011;42916;54.346;18.562;2022-08-14T03:46:15;8.30;;;3.90;;
57023;SDS011;42916;54.346;18.562;2022-08-14T03:48:43;7.60;;;3.90;;
57023;SDS011;42916;54.346;18.562;2022-08-14T03:51:11;8.40;;;3.60;;
57023;SDS011;42916;54.346;18.562;2022-08-14T03:53:40;3.90;;;3.40;;
57023;SDS011;42916;54.346;18.562;2022-08-14T03:56:10;8.20;;;3.80;;
57023;SDS011;42916;54.346;18.562;2022-08-14T03:58:50;5.00;;;3.20;;
57023;SDS011;42916;54.346;18.562;2022-08-14T04:01:18;8.10;;;3.60;;
57023;SDS011;42916;54.346;18.562;2022-08-14T04:03:47;4.60;;;3.70;;
57023;SDS011;42916;54.346;18.562;2022-08-14T04:06:16;8.80;;;3.20;;
57023;SDS011;42916;54.346;18.562;2022-08-14T04:08:45;10.10;;;3.80;;
57023;SDS011;42916;54.346;18.562;2022-08-14T04:11:12;9.20;;;4.40;;
57023;SDS011;42916;54.346;18.562;2022-08-14T04:13:41;6.40;;;4.20;;
57023;SDS011;42916;54.346;18.562;2022-08-14T04:16:10;11.80;;;4.30;;
57023;SDS011;42916;54.346;18.562;2022-08-14T04:18:41;7.60;;;4.50;;
57023;SDS011;42916;54.346;18.562;2022-08-14T04:21:11;9.30;;;4.00;;
57023;SDS011;42916;54.346;18.562;2022-08-14T04:23:39;9.20;;;4.00;;
57023;SDS011;42916;54.346;18.562;2022-08-14T04:26:09;10.90;;;4.20;;
57023;SDS011;42916;54.346;18.562;2022-08-14T04:28:38;7.70;;;4.00;;
57023;SDS011;42916;54.346;18.562;2022-08-14T04:31:06;8.70;;;4.40;;
57023;SDS011;42916;54.346;18.562;2022-08-14T04:33:33;9.40;;;4.80;;
57023;SDS011;42916;54.346;18.562;2022-08-14T04:36:01;8.40;;;4.80;;
57023;SDS011;42916;54.346;18.562;2022-08-14T04:38:29;12.40;;;5.00;;
57023;SDS011;42916;54.346;18.562;2022-08-14T04:41:14;9.00;;;5.10;;
57023;SDS011;42916;54.346;18.562;2022-08-14T04:43:59;8.80;;;5.10;;
57023;SDS011;42916;54.346;18.562;2022-08-14T04:46:26;10.20;;;4.90;;
57023;SDS011;42916;54.346;18.562;2022-08-14T04:48:54;9.10;;;4.80;;
57023;SDS011;42916;54.346;18.562;2022-08-14T04:51:21;9.20;;;4.80;;
57023;SDS011;42916;54.346;18.562;2022-08-14T04:53:53;8.70;;;5.10;;
57023;SDS011;42916;54.346;18.562;2022-08-14T04:56:22;6.00;;;4.30;;
57023;SDS011;42916;54.346;18.562;2022-08-14T04:58:50;10.90;;;4.80;;
57023;SDS011;42916;54.346;18.562;2022-08-14T05:01:25;8.90;;;4.50;;
57023;SDS011;42916;54.346;18.562;2022-08-14T05:03:52;8.20;;;4.70;;
57023;SDS011;42916;54.346;18.562;2022-08-14T05:06:20;7.70;;;5.10;;
57023;SDS011;42916;54.346;18.562;2022-08-14T05:08:47;8.00;;;4.80;;
57023;SDS011;42916;54.346;18.562;2022-08-14T05:11:14;8.10;;;4.70;;
57023;SDS011;42916;54.346;18.562;2022-08-14T05:13:41;7.00;;;4.50;;
57023;SDS011;42916;54.346;18.562;2022-08-14T05:16:09;12.70;;;4.50;;
57023;SDS011;42916;54.346;18.562;2022-08-14T05:18:38;13.30;;;5.20;;
57023;SDS011;42916;54.346;18.562;2022-08-14T05:21:08;6.20;;;4.80;;
57023;SDS011;42916;54.346;18.562;2022-08-14T05:23:36;8.50;;;4.70;;
57023;SDS011;42916;54.346;18.562;2022-08-14T05:26:04;9.80;;;5.00;;
57023;SDS011;42916;54.346;18.562;2022-08-14T05:28:39;12.60;;;5.10;;
57023;SDS011;42916;54.346;18.562;2022-08-14T05:31:10;12.50;;;5.10;;
57023;SDS011;42916;54.346;18.562;2022-08-14T05:33:39;7.50;;;5.30;;
57023;SDS011;42916;54.346;18.562;2022-08-14T05:36:06;8.10;;;5.80;;
57023;SDS011;42916;54.346;18.562;2022-08-14T05:38:37;9.50;;;6.10;;
57023;SDS011;42916;54.346;18.562;2022-08-14T05:41:08;15.00;;;6.70;;
57023;SDS011;42916;54.346;18.562;2022-08-14T05:43:37;13.90;;;6.90;;
57023;SDS011;42916;54.346;18.562;2022-08-14T05:46:08;11.10;;;6.00;;
57023;SDS011;42916;54.346;18.562;2022-08-14T05:48:37;9.30;;;5.90;;
57023;SDS011;42916;54.346;18.562;2022-08-14T05:51:04;10.10;;;5.70;;
57023;SDS011;42916;54.346;18.562;2022-08-14T05:53:31;8.60;;;5.70;;
57023;SDS011;42916;54.346;18.562;2022-08-14T05:55:58;11.20;;;6.10;;
57023;SDS011;42916;54.346;18.562;2022-08-14T05:58:25;8.90;;;5.60;;
57023;SDS011;42916;54.346;18.562;2022-08-14T06:00:52;11.50;;;5.60;;
57023;SDS011;42916;54.346;18.562;2022-08-14T06:03:21;9.40;;;5.80;;
57023;SDS011;42916;54.346;18.562;2022-08-14T06:05:51;10.50;;;5.10;;
57023;SDS011;42916;54.346;18.562;2022-08-14T06:08:26;9.50;;;5.30;;
57023;SDS011;42916;54.346;18.562;2022-08-14T06:10:59;10.80;;;5.50;;
57023;SDS011;42916;54.346;18.562;2022-08-14T06:13:35;11.10;;;5.90;;
57023;SDS011;42916;54.346;18.562;2022-08-14T06:16:03;11.80;;;6.20;;
57023;SDS011;42916;54.346;18.562;2022-08-14T06:18:30;16.20;;;6.90;;
57023;SDS011;42916;54.346;18.562;2022-08-14T06:20:58;12.20;;;6.20;;
57023;SDS011;42916;54.346;18.562;2022-08-14T06:23:24;7.30;;;5.00;;
57023;SDS011;42916;54.346;18.562;2022-08-14T06:25:51;9.70;;;5.50;;
57023;SDS011;42916;54.346;18.562;2022-08-14T06:28:19;10.30;;;5.70;;
57023;SDS011;42916;54.346;18.562;2022-08-14T06:30:47;14.50;;;6.30;;
57023;SDS011;42916;54.346;18.562;2022-08-14T06:33:15;5.90;;;5.20;;
57023;SDS011;42916;54.346;18.562;2022-08-14T06:35:43;9.90;;;5.30;;
57023;SDS011;42916;54.346;18.562;2022-08-14T06:38:14;13.90;;;5.20;;
57023;SDS011;42916;54.346;18.562;2022-08-14T06:40:45;8.50;;;5.60;;
57023;SDS011;42916;54.346;18.562;2022-08-14T06:43:13;9.80;;;5.20;;
57023;SDS011;42916;54.346;18.562;2022-08-14T06:45:41;7.90;;;4.20;;
57023;SDS011;42916;54.346;18.562;2022-08-14T06:48:17;8.40;;;4.60;;
57023;SDS011;42916;54.346;18.562;2022-08-14T06:50:46;11.50;;;5.00;;
57023;SDS011;42916;54.346;18.562;2022-08-14T06:53:13;7.40;;;4.90;;
57023;SDS011;42916;54.346;18.562;2022-08-14T06:55:41;9.60;;;5.20;;
57023;SDS011;42916;54.346;18.562;2022-08-14T06:58:12;7.60;;;4.10;;
57023;SDS011;42916;54.346;18.562;2022-08-14T07:00:40;11.40;;;4.30;;
57023;SDS011;42916;54.346;18.562;2022-08-14T07:03:28;9.60;;;4.60;;
57023;SDS011;42916;54.346;18.562;2022-08-14T07:06:13;7.60;;;4.60;;
57023;SDS011;42916;54.346;18.562;2022-08-14T07:08:41;7.30;;;4.20;;
57023;SDS011;42916;54.346;18.562;2022-08-14T07:11:09;7.60;;;4.40;;
57023;SDS011;42916;54.346;18.562;2022-08-14T07:13:36;4.60;;;4.20;;
57023;SDS011;42916;54.346;18.562;2022-08-14T07:16:03;3.90;;;3.50;;
57023;SDS011;42916;54.346;18.562;2022-08-14T07:18:32;5.20;;;4.30;;
57023;SDS011;42916;54.346;18.562;2022-08-14T07:21:00;7.00;;;4.30;;
57023;SDS011;42916;54.346;18.562;2022-08-14T07:23:29;6.60;;;4.30;;
57023;SDS011;42916;54.346;18.562;2022-08-14T07:25:57;6.20;;;4.70;;
57023;SDS011;42916;54.346;18.562;2022-08-14T07:28:34;7.40;;;4.80;;
57023;SDS011;42916;54.346;18.562;2022-08-14T07:31:04;8.20;;;4.20;;
57023;SDS011;42916;54.346;18.562;2022-08-14T07:33:34;8.30;;;4.40;;
57023;SDS011;42916;54.346;18.562;2022-08-14T07:36:04;7.40;;;3.80;;
57023;SDS011;42916;54.346;18.562;2022-08-14T07:38:33;7.00;;;3.80;;
57023;SDS011;42916;54.346;18.562;2022-08-14T07:40:59;6.60;;;4.10;;
57023;SDS011;42916;54.346;18.562;2022-08-14T07:43:26;5.90;;;4.00;;
57023;SDS011;42916;54.346;18.562;2022-08-14T07:45:52;8.20;;;3.60;;
57023;SDS011;42916;54.346;18.562;2022-08-14T07:48:19;7.80;;;3.80;;
57023;SDS011;42916;54.346;18.562;2022-08-14T07:50:46;9.50;;;3.60;;
57023;SDS011;42916;54.346;18.562;2022-08-14T07:53:16;6.30;;;3.70;;
57023;SDS011;42916;54.346;18.562;2022-08-14T07:58:14;5.20;;;3.70;;
57023;SDS011;42916;54.346;18.562;2022-08-14T08:03:09;6.30;;;3.60;;
57023;SDS011;42916;54.346;18.562;2022-08-14T08:05:38;7.10;;;4.10;;
57023;SDS011;42916;54.346;18.562;2022-08-14T08:08:06;7.30;;;3.40;;
57023;SDS011;42916;54.346;18.562;2022-08-14T08:10:34;3.80;;;3.40;;
57023;SDS011;42916;54.346;18.562;2022-08-14T08:15:35;9.60;;;3.90;;
57023;SDS011;42916;54.346;18.562;2022-08-14T08:18:07;5.10;;;4.10;;
57023;SDS011;42916;54.346;18.562;2022-08-14T08:20:36;10.20;;;3.90;;
57023;SDS011;42916;54.346;18.562;2022-08-14T08:23:05;7.30;;;3.90;;
57023;SDS011;42916;54.346;18.562;2022-08-14T08:25:34;4.40;;;3.40;;
57023;SDS011;42916;54.346;18.562;2022-08-14T08:28:04;6.20;;;4.00;;
57023;SDS011;42916;54.346;18.562;2022-08-14T08:30:36;5.10;;;3.40;;
57023;SDS011;42916;54.346;18.562;2022-08-14T08:33:05;6.00;;;3.70;;
57023;SDS011;42916;54.346;18.562;2022-08-14T08:35:34;4.90;;;3.70;;
57023;SDS011;42916;54.346;18.562;2022-08-14T08:38:05;4.10;;;3.40;;
57023;SDS011;42916;54.346;18.562;2022-08-14T08:40:34;6.50;;;3.50;;
57023;SDS011;42916;54.346;18.562;2022-08-14T08:45:54;5.80;;;3.70;;
57023;SDS011;42916;54.346;18.562;2022-08-14T08:48:24;5.60;;;3.90;;
57023;SDS011;42916;54.346;18.562;2022-08-14T08:51:00;6.60;;;3.80;;
57023;SDS011;42916;54.346;18.562;2022-08-14T08:53:29;5.80;;;3.90;;
57023;SDS011;42916;54.346;18.562;2022-08-14T08:55:57;5.70;;;3.30;;
57023;SDS011;42916;54.346;18.562;2022-08-14T08:58:25;5.60;;;3.90;;
57023;SDS011;42916;54.346;18.562;2022-08-14T09:00:53;7.00;;;3.40;;
57023;SDS011;42916;54.346;18.562;2022-08-14T09:03:22;6.10;;;3.70;;
57023;SDS011;42916;54.346;18.562;2022-08-14T09:05:52;9.20;;;4.00;;
57023;SDS011;42916;54.346;18.562;2022-08-14T09:08:26;5.90;;;3.10;;
57023;SDS011;42916;54.346;18.562;2022-08-14T09:10:55;5.30;;;3.60;;
57023;SDS011;42916;54.346;18.562;2022-08-14T09:13:22;6.70;;;3.30;;
57023;SDS011;42916;54.346;18.562;2022-08-14T09:15:52;4.30;;;3.40;;
57023;SDS011;42916;54.346;18.562;2022-08-14T09:18:20;4.90;;;3.20;;
57023;SDS011;42916;54.346;18.562;2022-08-14T09:20:51;4.40;;;3.20;;
57023;SDS011;42916;54.346;18.562;2022-08-14T09:23:20;5.90;;;2.80;;
57023;SDS011;42916;54.346;18.562;2022-08-14T09:25:48;5.20;;;3.50;;
57023;SDS011;42916;54.346;18.562;2022-08-14T09:28:17;7.10;;;3.80;;
57023;SDS011;42916;54.346;18.562;2022-08-14T09:41:46;7.60;;;2.90;;
57023;SDS011;42916;54.346;18.562;2022-08-14T09:46:57;3.70;;;2.80;;
57023;SDS011;42916;54.346;18.562;2022-08-14T09:49:28;5.60;;;2.70;;
57023;SDS011;42916;54.346;18.562;2022-08-14T09:52:04;6.10;;;3.00;;
57023;SDS011;42916;54.346;18.562;2022-08-14T09:54:39;4.00;;;2.70;;
57023;SDS011;42916;54.346;18.562;2022-08-14T09:57:23;7.90;;;2.70;;
57023;SDS011;42916;54.346;18.562;2022-08-14T09:59:51;4.80;;;3.30;;
57023;SDS011;42916;54.346;18.562;2022-08-14T10:02:22;6.50;;;3.20;;
57023;SDS011;42916;54.346;18.562;2022-08-14T10:05:10;7.60;;;3.20;;
57023;SDS011;42916;54.346;18.562;2022-08-14T10:07:49;7.50;;;3.50;;
57023;SDS011;42916;54.346;18.562;2022-08-14T10:10:33;5.80;;;3.30;;
57023;SDS011;42916;54.346;18.562;2022-08-14T10:13:19;5.00;;;3.20;;
57023;SDS011;42916;54.346;18.562;2022-08-14T10:15:48;5.50;;;3.20;;
57023;SDS011;42916;54.346;18.562;2022-08-14T10:18:16;7.20;;;3.10;;
57023;SDS011;42916;54.346;18.562;2022-08-14T10:23:19;4.60;;;3.00;;
57023;SDS011;42916;54.346;18.562;2022-08-14T10:25:48;7.60;;;3.90;;
57023;SDS011;42916;54.346;18.562;2022-08-14T10:28:17;4.10;;;2.90;;
57023;SDS011;42916;54.346;18.562;2022-08-14T10:30:46;6.90;;;3.20;;
57023;SDS011;42916;54.346;18.562;2022-08-14T10:33:23;5.80;;;3.20;;
57023;SDS011;42916;54.346;18.562;2022-08-14T10:35:51;5.00;;;3.20;;
57023;SDS011;42916;54.346;18.562;2022-08-14T10:38:31;5.50;;;3.60;;
57023;SDS011;42916;54.346;18.562;2022-08-14T10:41:13;5.20;;;3.30;;
57023;SDS011;42916;54.346;18.562;2022-08-14T10:43:43;5.40;;;3.50;;
57023;SDS011;42916;54.346;18.562;2022-08-14T10:46:37;6.80;;;3.50;;
57023;SDS011;42916;54.346;18.562;2022-08-14T10:49:14;6.80;;;3.30;;
57023;SDS011;42916;54.346;18.562;2022-08-14T10:51:53;7.30;;;3.20;;
57023;SDS011;42916;54.346;18.562;2022-08-14T10:54:50;5.50;;;3.10;;
57023;SDS011;42916;54.346;18.562;2022-08-14T10:57:21;7.30;;;3.50;;
57023;SDS011;42916;54.346;18.562;2022-08-14T10:59:59;7.40;;;3.30;;
57023;SDS011;42916;54.346;18.562;2022-08-14T11:02:36;6.60;;;3.30;;
57023;SDS011;42916;54.346;18.562;2022-08-14T11:07:35;4.90;;;3.20;;
57023;SDS011;42916;54.346;18.562;2022-08-14T11:10:09;3.80;;;3.00;;
57023;SDS011;42916;54.346;18.562;2022-08-14T11:12:46;7.00;;;3.10;;
57023;SDS011;42916;54.346;18.562;2022-08-14T11:15:15;6.50;;;3.60;;
57023;SDS011;42916;54.346;18.562;2022-08-14T11:17:44;3.80;;;2.90;;
57023;SDS011;42916;54.346;18.562;2022-08-14T11:20:16;3.60;;;2.90;;
57023;SDS011;42916;54.346;18.562;2022-08-14T11:22:45;4.40;;;3.00;;
57023;SDS011;42916;54.346;18.562;2022-08-14T11:25:13;5.60;;;2.90;;
57023;SDS011;42916;54.346;18.562;2022-08-14T11:30:11;4.50;;;3.70;;
57023;SDS011;42916;54.346;18.562;2022-08-14T11:32:45;6.70;;;3.30;;
57023;SDS011;42916;54.346;18.562;2022-08-14T11:35:18;4.00;;;2.80;;
57023;SDS011;42916;54.346;18.562;2022-08-14T11:37:56;6.00;;;3.20;;
57023;SDS011;42916;54.346;18.562;2022-08-14T11:40:27;9.30;;;3.10;;
57023;SDS011;42916;54.346;18.562;2022-08-14T11:42:56;9.10;;;3.00;;
57023;SDS011;42916;54.346;18.562;2022-08-14T11:45:28;5.00;;;2.90;;
57023;SDS011;42916;54.346;18.562;2022-08-14T11:48:01;7.40;;;2.70;;
57023;SDS011;42916;54.346;18.562;2022-08-14T11:50:39;3.90;;;2.90;;
57023;SDS011;42916;54.346;18.562;2022-08-14T11:53:06;6.20;;;3.00;;
57023;SDS011;42916;54.346;18.562;2022-08-14T11:55:45;5.50;;;3.00;;
57023;SDS011;42916;54.346;18.562;2022-08-14T11:58:12;5.80;;;2.60;;
57023;SDS011;42916;54.346;18.562;2022-08-14T12:00:48;5.30;;;2.60;;
57023;SDS011;42916;54.346;18.562;2022-08-14T12:03:16;4.30;;;2.70;;
57023;SDS011;42916;54.346;18.562;2022-08-14T12:05:42;5.10;;;2.60;;
57023;SDS011;42916;54.346;18.562;2022-08-14T12:08:10;3.20;;;2.40;;
57023;SDS011;42916;54.346;18.562;2022-08-14T12:10:38;7.00;;;2.90;;
57023;SDS011;42916;54.346;18.562;2022-08-14T12:13:10;4.80;;;2.40;;
57023;SDS011;42916;54.346;18.562;2022-08-14T12:15:39;5.30;;;2.80;;
57023;SDS011;42916;54.346;18.562;2022-08-14T12:20:35;4.50;;;2.70;;
57023;SDS011;42916;54.346;18.562;2022-08-14T12:23:04;6.50;;;2.70;;
57023;SDS011;42916;54.346;18.562;2022-08-14T12:25:33;3.70;;;2.70;;
57023;SDS011;42916;54.346;18.562;2022-08-14T12:33:02;3.30;;;2.20;;
57023;SDS011;42916;54.346;18.562;2022-08-14T12:35:37;3.90;;;2.60;;
57023;SDS011;42916;54.346;18.562;2022-08-14T12:38:05;3.90;;;2.70;;
57023;SDS011;42916;54.346;18.562;2022-08-14T12:40:32;9.50;;;2.50;;
57023;SDS011;42916;54.346;18.562;2022-08-14T12:43:02;3.80;;;2.60;;
57023;SDS011;42916;54.346;18.562;2022-08-14T12:45:30;4.90;;;2.90;;
57023;SDS011;42916;54.346;18.562;2022-08-14T12:48:04;4.20;;;3.00;;
57023;SDS011;42916;54.346;18.562;2022-08-14T12:50:38;6.70;;;2.80;;
57023;SDS011;42916;54.346;18.562;2022-08-14T12:53:07;6.50;;;2.70;;
57023;SDS011;42916;54.346;18.562;2022-08-14T12:55:35;6.30;;;2.90;;
57023;SDS011;42916;54.346;18.562;2022-08-14T12:58:03;6.40;;;3.00;;
57023;SDS011;42916;54.346;18.562;2022-08-14T13:00:44;7.20;;;3.30;;
57023;SDS011;42916;54.346;18.562;2022-08-14T13:03:22;8.20;;;3.20;;
57023;SDS011;42916;54.346;18.562;2022-08-14T13:05:50;7.30;;;3.10;;
57023;SDS011;42916;54.346;18.562;2022-08-14T13:08:17;4.60;;;3.40;;
57023;SDS011;42916;54.346;18.562;2022-08-14T13:10:45;5.60;;;3.10;;
57023;SDS011;42916;54.346;18.562;2022-08-14T13:13:14;8.10;;;2.60;;
57023;SDS011;42916;54.346;18.562;2022-08-14T13:15:42;7.30;;;3.10;;
57023;SDS011;42916;54.346;18.562;2022-08-14T13:18:12;5.50;;;2.80;;
57023;SDS011;42916;54.346;18.562;2022-08-14T13:20:40;7.40;;;3.00;;
57023;SDS011;42916;54.346;18.562;2022-08-14T13:23:08;7.10;;;3.30;;
57023;SDS011;42916;54.346;18.562;2022-08-14T13:25:35;5.30;;;3.10;;
57023;SDS011;42916;54.346;18.562;2022-08-14T13:28:05;5.40;;;3.30;;
57023;SDS011;42916;54.346;18.562;2022-08-14T13:30:34;8.00;;;3.20;;
57023;SDS011;42916;54.346;18.562;2022-08-14T13:33:01;6.00;;;3.20;;
57023;SDS011;42916;54.346;18.562;2022-08-14T13:35:30;6.00;;;3.60;;
57023;SDS011;42916;54.346;18.562;2022-08-14T13:37:57;5.90;;;3.60;;
57023;SDS011;42916;54.346;18.562;2022-08-14T13:40:24;3.70;;;3.30;;
57023;SDS011;42916;54.346;18.562;2022-08-14T13:42:50;7.40;;;3.80;;
57023;SDS011;42916;54.346;18.562;2022-08-14T13:45:18;5.20;;;3.30;;
57023;SDS011;42916;54.346;18.562;2022-08-14T13:47:50;6.50;;;3.00;;
57023;SDS011;42916;54.346;18.562;2022-08-14T13:50:18;6.80;;;3.50;;
57023;SDS011;42916;54.346;18.562;2022-08-14T13:55:20;6.80;;;4.10;;
57023;SDS011;42916;54.346;18.562;2022-08-14T13:57:50;6.30;;;3.20;;
57023;SDS011;42916;54.346;18.562;2022-08-14T14:00:16;7.70;;;4.10;;
57023;SDS011;42916;54.346;18.562;2022-08-14T14:02:44;8.60;;;4.00;;
57023;SDS011;42916;54.346;18.562;2022-08-14T14:05:13;7.60;;;3.20;;
57023;SDS011;42916;54.346;18.562;2022-08-14T14:07:45;6.30;;;3.00;;
57023;SDS011;42916;54.346;18.562;2022-08-14T14:10:13;6.50;;;3.10;;
57023;SDS011;42916;54.346;18.562;2022-08-14T14:12:42;6.00;;;3.40;;
57023;SDS011;42916;54.346;18.562;2022-08-14T14:15:19;8.10;;;3.00;;
57023;SDS011;42916;54.346;18.562;2022-08-14T14:17:46;6.00;;;3.20;;
57023;SDS011;42916;54.346;18.562;2022-08-14T14:20:14;5.60;;;3.00;;
57023;SDS011;42916;54.346;18.562;2022-08-14T14:22:44;5.70;;;3.20;;
57023;SDS011;42916;54.346;18.562;2022-08-14T14:25:15;4.60;;;3.30;;
57023;SDS011;42916;54.346;18.562;2022-08-14T14:27:44;5.70;;;2.90;;
57023;SDS011;42916;54.346;18.562;2022-08-14T14:30:14;7.50;;;3.30;;
57023;SDS011;42916;54.346;18.562;2022-08-14T14:32:43;8.70;;;3.10;;
57023;SDS011;42916;54.346;18.562;2022-08-14T14:35:14;6.30;;;2.90;;
57023;SDS011;42916;54.346;18.562;2022-08-14T14:37:45;5.00;;;3.10;;
57023;SDS011;42916;54.346;18.562;2022-08-14T14:40:13;4.50;;;3.10;;
57023;SDS011;42916;54.346;18.562;2022-08-14T14:42:45;4.60;;;3.20;;
57023;SDS011;42916;54.346;18.562;2022-08-14T14:45:15;6.20;;;3.20;;
57023;SDS011;42916;54.346;18.562;2022-08-14T14:47:46;6.90;;;3.00;;
57023;SDS011;42916;54.346;18.562;2022-08-14T14:50:14;8.60;;;3.00;;
57023;SDS011;42916;54.346;18.562;2022-08-14T14:52:41;7.10;;;3.00;;
57023;SDS011;42916;54.346;18.562;2022-08-14T14:55:08;6.00;;;3.00;;
57023;SDS011;42916;54.346;18.562;2022-08-14T14:57:41;5.40;;;3.60;;
57023;SDS011;42916;54.346;18.562;2022-08-14T15:00:09;9.10;;;3.40;;
57023;SDS011;42916;54.346;18.562;2022-08-14T15:02:39;4.80;;;3.40;;
57023;SDS011;42916;54.346;18.562;2022-08-14T15:05:10;7.20;;;3.20;;
57023;SDS011;42916;54.346;18.562;2022-08-14T15:07:39;9.80;;;3.80;;
57023;SDS011;42916;54.346;18.562;2022-08-14T15:10:08;8.30;;;4.30;;
57023;SDS011;42916;54.346;18.562;2022-08-14T15:12:37;7.30;;;3.90;;
57023;SDS011;42916;54.346;18.562;2022-08-14T15:15:04;10.10;;;6.60;;
